Pagina principale
METAR-TAF:

METAR-TAF

Aeroporti :

Seldovia, Alaska, Stati Uniti

latitudine: 59-27N, longitudine: 151-42W, altezza: 9 m

Osservazione

Il bollettino è stato emesso 27 minuti fa, alle 14:53 UTC
Vento calmo
Temperature 6°C
Umidità 81%
Pressione 1008 hPa
Visibilità: 16.1 km
Nuvoloso ad un'altezza di 4200 ft
Cielo coperto ad un'altezza di 4900 ft

METAR: PASO 221453Z AUTO 00000KT 10SM BKN042 OVC049 06/03 A2978 RMK AO2 SLP086 T00560028 56006 TSNO

Ora: 07:20 (15:20 UTC)


TAF: mancante

Osservazioni e previsioni meteorologiche di più di 4000 aeroporti (messaggi METAR e TAF).

Le stazioni disponibili sono rappresentate dai dischi gialli e rossi sulla carta.

Puntare il mouse per vedere il nome della stazione.

Clicca sopra per visualizzare le osservazioni e previsioni meteorologiche.

Per cambiare la mappa : fare clic sui pulsanti verdi con una croce nera per ingrandire, il pulsante verde con un trattino per diminuire, o sulla freccia verde per le mappe adiacenti.


METAR-TAF: